Main page
METAR-TAF:

METAR-TAF

Airports :

Copenhagen Airport

Copenhagen, Denmark

latitude: 55-37N, longitude: 012-39E, elevation: 5 m

Current weather observation

The report was made 8 minutes ago, at 06:50 UTC
Wind 17 kt from the West/Southwest
Temperature 17°C
Humidity 72%
Pressure 1015 hPa
Visibility 10 km or more
Scattered clouds at a height of 2200 ft
Broken clouds at a height of 3500 ft

METAR: EKCH 190650Z 25017KT 9999 SCT022 BKN035 17/12 Q1015 NOSIG

Time: 08:58 (06:58 UTC)

Forecast

The report was made 1 hour and 53 minutes ago, at 05:05 UTC
Forecast valid from 19 at 06 UTC to 20 at 06 UTC
Wind 15 kt from the West
Visibility 10 km or more
Broken clouds at a height of 2500 ft
Temporary
from 19 at 10 UTC to 19 at 17 UTC
Wind 18 kt from the West with gusts up to 28 kt
Becoming
from 19 at 21 UTC to 19 at 24 UTC
Wind 8 kt from the West

TAF: EKCH 190505Z 1906/2006 26015KT 9999 BKN025 TEMPO 1910/1917 27018G28KT BECMG 1921/1924 27008KT

Weather observations and forecasts of more than 4000 airports (METAR and TAF reports).

The available stations are represented by yellow and red dots on the map.

Hover mouse over dot to see the name of the station.

Then click to see weather observations and forecasts.

To change the map : click on the green buttons with a black cross to zoom in, on the green button with a dash to zoom out, or on the green arrows for adjacent maps.


METAR-TAF: